Time;durP1;ratioP1;P1;durP2;ratioP2;P2;SDS_P1;SDS_P2;PMS_P1;PMS_P2;Temp;Humidity;BMP_temperature;BMP_pressure;BME280_temperature;BME280_humidity;BME280_pressure;Samples;Min_cycle;Max_cycle;Signal;HPM_P1;HPM_P2
2021/01/31 00:01:03;;;;;;;12.50;6.80;;;4.10;99.90;;;;;;5098940;28;20047;-68
2021/01/31 00:03:31;;;;;;;13.10;6.90;;;3.90;99.90;;;;;;5097343;28;20215;-70
2021/01/31 00:06:01;;;;;;;13.05;6.78;;;4.30;99.90;;;;;;5098158;28;20071;-68
2021/01/31 00:08:28;;;;;;;13.52;6.75;;;3.90;99.90;;;;;;5094611;28;20056;-67
2021/01/31 00:10:56;;;;;;;12.10;6.80;;;3.90;99.90;;;;;;5097699;28;20520;-67
2021/01/31 00:13:24;;;;;;;12.65;7.15;;;3.80;99.90;;;;;;5096942;28;20077;-68
2021/01/31 00:15:51;;;;;;;12.05;6.95;;;4.00;99.90;;;;;;5097169;28;20063;-67
2021/01/31 00:18:21;;;;;;;12.70;7.18;;;3.80;99.90;;;;;;5098012;28;20071;-68
2021/01/31 00:20:50;;;;;;;13.55;7.97;;;4.00;99.90;;;;;;5098541;28;20163;-70
2021/01/31 00:23:16;;;;;;;14.50;8.40;;;4.00;99.90;;;;;;5099913;28;21862;-68
2021/01/31 00:25:43;;;;;;;11.82;7.28;;;4.00;99.90;;;;;;5098874;28;20105;-68
2021/01/31 00:28:11;;;;;;;13.55;7.13;;;3.70;99.90;;;;;;5097232;28;20142;-68
2021/01/31 00:30:41;;;;;;;13.70;7.72;;;3.90;99.90;;;;;;5097659;28;20043;-70
2021/01/31 00:33:12;;;;;;;13.18;7.70;;;4.00;99.90;;;;;;5096933;28;20078;-68
2021/01/31 00:35:39;;;;;;;14.65;6.97;;;4.20;99.90;;;;;;5099120;28;20234;-68
2021/01/31 00:38:07;;;;;;;13.88;7.40;;;3.90;99.90;;;;;;5098985;28;20543;-68
2021/01/31 00:40:33;;;;;;;12.20;6.72;;;4.00;99.90;;;;;;5094860;28;20044;-68
2021/01/31 00:43:00;;;;;;;12.48;7.22;;;3.90;99.90;;;;;;5097902;28;20146;-68
2021/01/31 00:45:27;;;;;;;14.23;7.32;;;3.90;99.90;;;;;;5096948;28;20079;-68
2021/01/31 00:47:54;;;;;;;15.93;8.05;;;3.90;99.90;;;;;;5094206;28;20566;-67
2021/01/31 00:50:30;;;;;;;12.60;7.47;;;4.10;99.90;;;;;;5098709;28;20120;-69
2021/01/31 00:52:58;;;;;;;13.30;7.28;;;4.20;99.90;;;;;;5098242;28;20077;-68
2021/01/31 00:55:24;;;;;;;15.07;7.28;;;3.90;99.90;;;;;;5098152;28;20663;-68
2021/01/31 00:57:51;;;;;;;13.32;6.80;;;4.00;99.90;;;;;;5097873;28;20044;-68
2021/01/31 01:00:26;;;;;;;13.48;7.20;;;4.00;99.90;;;;;;5101422;28;20109;-73
2021/01/31 01:02:54;;;;;;;12.52;7.10;;;4.00;99.90;;;;;;5100891;28;20515;-68
2021/01/31 01:05:22;;;;;;;13.15;7.00;;;3.90;99.90;;;;;;5101596;28;20147;-68
2021/01/31 01:07:49;;;;;;;13.57;7.13;;;3.90;99.90;;;;;;5100713;28;20131;-67
2021/01/31 01:10:19;;;;;;;13.43;7.47;;;3.80;99.90;;;;;;5099078;27;20126;-66
2021/01/31 01:12:46;;;;;;;;;;;3.70;99.90;;;;;;5103557;28;20047;-73
2021/01/31 01:15:15;;;;;;;11.23;6.35;;;3.80;99.90;;;;;;5112468;28;20014;-67
2021/01/31 01:17:43;;;;;;;;;;;3.90;99.90;;;;;;5108563;27;20040;-68
2021/01/31 01:20:10;;;;;;;14.70;6.95;;;4.00;99.90;;;;;;5104700;28;20058;-68
2021/01/31 01:22:36;;;;;;;14.00;7.25;;;3.90;99.90;;;;;;5109234;28;20039;-68
2021/01/31 01:25:06;;;;;;;12.18;5.93;;;4.10;99.90;;;;;;5102151;28;20051;-68
2021/01/31 01:27:32;;;;;;;13.07;6.80;;;4.30;99.90;;;;;;5106362;28;20075;-68
2021/01/31 01:29:59;;;;;;;13.20;6.97;;;4.00;99.90;;;;;;5105213;28;20071;-68
2021/01/31 01:32:26;;;;;;;12.30;6.57;;;3.90;99.90;;;;;;5103940;27;20082;-68
2021/01/31 01:34:53;;;;;;;14.50;7.20;;;4.20;99.90;;;;;;5104393;28;20460;-68
2021/01/31 01:37:20;;;;;;;11.98;6.78;;;4.00;99.90;;;;;;5106288;28;20096;-68
2021/01/31 01:39:47;;;;;;;12.77;7.05;;;4.10;99.90;;;;;;5105480;28;20543;-68
2021/01/31 01:42:13;;;;;;;13.15;7.63;;;4.10;99.90;;;;;;5111406;28;20047;-68
2021/01/31 01:44:40;;;;;;;12.35;7.65;;;4.00;99.90;;;;;;5105537;28;20071;-68
2021/01/31 01:47:09;;;;;;;10.95;6.80;;;4.10;99.90;;;;;;5108564;28;20089;-68
2021/01/31 01:49:43;;;;;;;16.05;7.90;;;4.10;99.90;;;;;;5110031;28;20130;-68
2021/01/31 01:52:22;;;;;;;12.57;6.95;;;4.00;99.90;;;;;;5104029;28;20051;-68
2021/01/31 01:54:57;;;;;;;13.10;7.23;;;4.30;99.90;;;;;;5105410;27;20117;-67
2021/01/31 01:57:29;;;;;;;13.52;7.40;;;4.20;99.90;;;;;;5110349;28;20048;-67
2021/01/31 01:59:57;;;;;;;15.27;7.78;;;4.10;99.90;;;;;;5109235;28;20498;-68
2021/01/31 02:02:32;;;;;;;12.20;7.22;;;4.00;99.90;;;;;;5108402;28;20051;-68
2021/01/31 02:05:08;;;;;;;14.20;7.80;;;4.10;99.90;;;;;;5110777;28;20134;-68
2021/01/31 02:07:35;;;;;;;10.52;6.53;;;4.20;99.90;;;;;;5106130;28;20051;-68
2021/01/31 02:10:01;;;;;;;15.25;7.93;;;4.10;99.90;;;;;;5106399;27;20051;-68
2021/01/31 02:12:29;;;;;;;16.10;8.35;;;4.20;99.90;;;;;;5107289;27;20068;-67
2021/01/31 02:15:00;;;;;;;14.30;7.18;;;4.10;99.90;;;;;;5106483;28;20094;-68
2021/01/31 02:17:37;;;;;;;15.48;8.07;;;3.80;99.90;;;;;;5109470;27;20078;-68
2021/01/31 02:20:15;;;;;;;13.57;7.53;;;3.90;99.90;;;;;;5106094;28;20447;-68
2021/01/31 02:23:25;;;;;;;15.20;8.25;;;4.10;99.90;;;;;;5107083;28;20043;-67
2021/01/31 02:26:42;;;;;;;12.00;7.38;;;3.80;99.90;;;;;;5108658;28;20047;-67
2021/01/31 02:29:58;;;;;;;15.68;7.55;;;4.00;99.90;;;;;;5093113;28;20405;-68
2021/01/31 02:32:45;;;;;;;16.70;7.38;;;4.10;99.90;;;;;;5057213;28;20511;-68
2021/01/31 02:35:20;;;;;;;16.08;8.80;;;3.90;99.90;;;;;;5061669;28;20049;-67
2021/01/31 02:37:58;;;;;;;14.75;7.78;;;4.30;99.90;;;;;;5081328;28;20547;-67
2021/01/31 02:40:38;;;;;;;13.00;7.53;;;4.10;99.90;;;;;;5093205;28;20136;-68
2021/01/31 02:43:17;;;;;;;15.50;8.32;;;3.90;99.90;;;;;;5102102;28;20123;-68
2021/01/31 02:45:46;;;;;;;11.90;6.55;;;4.00;99.90;;;;;;5106698;28;20073;-67
2021/01/31 02:48:23;;;;;;;17.30;7.93;;;4.20;99.90;;;;;;5104039;27;20074;-68
2021/01/31 02:50:56;;;;;;;14.02;7.60;;;3.90;99.90;;;;;;5105587;28;20047;-68
2021/01/31 02:53:27;;;;;;;15.60;7.72;;;3.90;99.90;;;;;;5110487;28;20100;-68
2021/01/31 02:56:04;;;;;;;14.55;7.50;;;3.90;99.90;;;;;;5108113;28;20108;-67
2021/01/31 02:59:00;;;;;;;13.75;7.80;;;4.00;99.90;;;;;;5103074;28;20071;-68
2021/01/31 03:01:34;;;;;;;14.98;7.78;;;4.00;99.90;;;;;;5084934;28;20134;-68
2021/01/31 03:04:11;;;;;;;13.13;7.10;;;3.90;99.90;;;;;;5098691;28;20475;-68
2021/01/31 03:06:44;;;;;;;16.63;8.07;;;3.90;99.90;;;;;;5104522;28;21431;-68
2021/01/31 03:09:45;;;;;;;13.40;7.45;;;3.90;99.90;;;;;;5112185;28;20078;-68
2021/01/31 03:12:20;;;;;;;14.13;7.45;;;4.00;99.90;;;;;;5105243;28;20490;-68
2021/01/31 03:14:54;;;;;;;14.70;6.93;;;3.90;99.90;;;;;;5106743;28;20044;-68
2021/01/31 03:17:27;;;;;;;17.70;8.15;;;3.80;99.90;;;;;;5102370;28;20040;-68
2021/01/31 03:20:29;;;;;;;14.25;7.28;;;3.90;99.90;;;;;;5110837;28;20067;-68
2021/01/31 03:23:22;;;;;;;15.45;7.63;;;3.80;99.90;;;;;;5097634;28;20048;-68
2021/01/31 03:25:58;;;;;;;14.23;8.10;;;3.80;99.90;;;;;;5101140;28;20063;-68
2021/01/31 03:28:24;;;;;;;13.63;7.07;;;3.80;99.90;;;;;;5105318;28;20131;-68
2021/01/31 03:30:53;;;;;;;14.55;7.50;;;4.10;99.90;;;;;;5104049;28;20051;-68
2021/01/31 03:33:28;;;;;;;14.70;7.70;;;4.00;99.90;;;;;;5099325;28;20079;-68
2021/01/31 03:35:55;;;;;;;15.57;7.95;;;4.10;99.90;;;;;;5108312;28;20430;-68
2021/01/31 03:38:38;;;;;;;18.77;8.38;;;3.80;99.90;;;;;;5104348;28;20043;-68
2021/01/31 03:41:11;;;;;;;13.25;7.20;;;4.00;99.90;;;;;;5102889;28;20059;-67
2021/01/31 03:43:38;;;;;;;12.13;7.38;;;3.90;99.90;;;;;;5108678;28;20073;-68
2021/01/31 03:46:22;;;;;;;13.05;7.30;;;3.90;99.90;;;;;;5104857;28;20116;-68
2021/01/31 03:48:57;;;;;;;15.75;8.23;;;3.70;99.90;;;;;;5106050;28;20043;-68
2021/01/31 03:51:24;;;;;;;14.73;8.05;;;3.70;99.90;;;;;;5099382;28;20079;-68
2021/01/31 03:53:51;;;;;;;15.07;8.18;;;3.80;99.90;;;;;;5101391;28;20067;-68
2021/01/31 03:56:27;;;;;;;23.02;8.98;;;3.60;99.90;;;;;;5102158;28;20071;-68
2021/01/31 03:58:56;;;;;;;14.57;7.70;;;3.60;99.90;;;;;;5105204;28;20118;-68
2021/01/31 04:01:25;;;;;;;15.18;8.60;;;3.60;99.90;;;;;;5100676;28;20136;-68
2021/01/31 04:04:18;;;;;;;13.90;8.18;;;3.80;99.90;;;;;;5106924;28;20122;-68
2021/01/31 04:06:50;;;;;;;15.23;8.00;;;3.70;99.90;;;;;;5102919;28;20056;-68
2021/01/31 04:09:17;;;;;;;15.55;8.25;;;4.00;99.90;;;;;;5103143;28;20040;-68
2021/01/31 04:11:45;;;;;;;13.95;7.80;;;3.60;99.90;;;;;;5108135;28;20402;-68
2021/01/31 04:14:30;;;;;;;15.32;8.30;;;3.70;99.90;;;;;;5103931;28;20078;-68
2021/01/31 04:16:56;;;;;;;14.50;7.72;;;3.70;99.90;;;;;;5104902;28;20079;-68
2021/01/31 04:19:23;;;;;;;15.13;7.95;;;3.90;99.90;;;;;;5106354;28;20100;-68
2021/01/31 04:21:49;;;;;;;15.75;7.55;;;4.00;99.90;;;;;;5102384;28;20395;-68
2021/01/31 04:24:15;;;;;;;14.95;8.43;;;3.70;99.90;;;;;;5107355;28;20140;-68
2021/01/31 04:26:42;;;;;;;16.75;8.02;;;3.80;99.90;;;;;;5102334;28;20475;-68
2021/01/31 04:29:09;;;;;;;15.02;8.13;;;4.00;99.90;;;;;;5106747;28;20078;-68
2021/01/31 04:31:35;;;;;;;14.55;7.72;;;3.70;99.90;;;;;;5104097;28;20085;-68
2021/01/31 04:34:03;;;;;;;13.50;7.43;;;3.60;99.90;;;;;;5103922;28;20083;-68
2021/01/31 04:36:29;;;;;;;14.15;7.88;;;3.70;99.90;;;;;;5111514;28;20066;-68
2021/01/31 04:38:57;;;;;;;13.88;7.65;;;3.70;99.90;;;;;;5110867;28;20089;-68
2021/01/31 04:41:33;;;;;;;15.68;7.72;;;3.70;99.90;;;;;;5108044;28;20050;-68
2021/01/31 04:44:00;;;;;;;14.30;7.57;;;3.60;99.90;;;;;;5115955;28;20130;-68
2021/01/31 04:46:45;;;;;;;12.68;7.00;;;3.70;99.90;;;;;;5109391;28;20082;-69
2021/01/31 04:49:39;;;;;;;14.48;8.15;;;3.60;99.90;;;;;;5102134;28;20048;-68
2021/01/31 04:52:21;;;;;;;13.95;7.00;;;3.70;99.90;;;;;;5126626;27;20523;-68
2021/01/31 04:55:08;;;;;;;16.38;7.85;;;3.70;99.90;;;;;;5107258;28;20059;-68
2021/01/31 04:57:40;;;;;;;13.57;7.15;;;4.00;99.90;;;;;;5105316;28;20088;-68
2021/01/31 05:00:14;;;;;;;13.18;7.65;;;3.70;99.90;;;;;;5109904;28;20108;-68
2021/01/31 05:02:45;;;;;;;15.88;8.00;;;3.80;99.90;;;;;;5110780;28;20471;-68
2021/01/31 05:05:25;;;;;;;14.02;7.25;;;3.70;99.90;;;;;;5105213;28;20067;-68
2021/01/31 05:07:58;;;;;;;14.18;7.45;;;3.80;99.90;;;;;;5107433;28;20055;-68
2021/01/31 05:10:26;;;;;;;12.65;7.53;;;4.00;99.90;;;;;;5109074;27;20093;-68
2021/01/31 05:13:23;;;;;;;15.73;7.70;;;3.80;99.90;;;;;;5108479;28;20048;-68
2021/01/31 05:16:04;;;;;;;13.45;7.47;;;3.70;99.90;;;;;;5108727;28;20558;-68
2021/01/31 05:18:33;;;;;;;13.23;7.43;;;3.70;99.90;;;;;;5107327;28;20084;-68
2021/01/31 05:21:05;;;;;;;14.30;7.40;;;3.70;99.90;;;;;;5105514;28;20051;-68
2021/01/31 05:23:36;;;;;;;13.07;7.80;;;3.90;99.90;;;;;;5109197;28;20044;-68
2021/01/31 05:26:05;;;;;;;14.93;7.18;;;3.90;99.90;;;;;;5107470;28;20055;-68
2021/01/31 05:28:35;;;;;;;13.57;7.28;;;3.90;99.90;;;;;;5105518;28;20052;-68
2021/01/31 05:31:01;;;;;;;12.95;7.78;;;3.80;99.90;;;;;;5109976;28;20063;-68
2021/01/31 05:33:28;;;;;;;13.35;7.57;;;4.10;99.90;;;;;;5109761;28;20047;-68
2021/01/31 05:36:06;;;;;;;16.05;7.97;;;4.00;99.90;;;;;;5107904;28;20063;-68
2021/01/31 05:38:41;;;;;;;14.32;7.00;;;3.90;99.90;;;;;;5108589;28;20039;-68
2021/01/31 05:41:22;;;;;;;14.27;7.20;;;3.80;99.90;;;;;;5107170;28;20121;-68
2021/01/31 05:44:15;;;;;;;14.05;7.30;;;4.00;99.90;;;;;;5110674;28;20120;-68
2021/01/31 05:46:45;;;;;;;15.30;7.50;;;3.80;99.90;;;;;;5093862;28;20077;-68
2021/01/31 05:49:33;;;;;;;16.63;8.05;;;4.00;99.90;;;;;;5102537;28;21937;-68
2021/01/31 05:52:00;;;;;;;15.23;7.20;;;4.00;99.90;;;;;;5108325;28;20071;-69
2021/01/31 05:54:36;;;;;;;11.95;7.43;;;3.70;99.90;;;;;;5106850;28;20048;-69
2021/01/31 05:57:03;;;;;;;15.25;8.10;;;3.70;99.90;;;;;;5108016;28;20059;-68
2021/01/31 05:59:38;;;;;;;13.45;7.50;;;3.80;99.90;;;;;;5104531;28;20475;-68
2021/01/31 06:02:05;;;;;;;15.98;7.47;;;3.70;99.90;;;;;;5107872;28;20096;-68
2021/01/31 06:04:32;;;;;;;12.25;7.50;;;3.70;99.90;;;;;;5105217;28;20138;-68
2021/01/31 06:07:08;;;;;;;13.27;7.55;;;3.80;99.90;;;;;;5108302;28;20459;-68
2021/01/31 06:09:44;;;;;;;14.55;7.68;;;3.90;99.90;;;;;;5111356;28;20087;-68
2021/01/31 06:12:21;;;;;;;14.02;7.22;;;3.70;99.90;;;;;;5105753;28;20052;-68
2021/01/31 06:15:12;;;;;;;13.57;8.00;;;3.70;99.90;;;;;;5104805;28;20351;-68
2021/01/31 06:17:39;;;;;;;12.52;7.30;;;4.10;99.90;;;;;;5108498;28;20051;-68
2021/01/31 06:20:08;;;;;;;14.88;7.72;;;4.00;99.90;;;;;;5102670;28;20127;-68
2021/01/31 06:22:46;;;;;;;13.30;7.60;;;3.70;99.90;;;;;;5113373;28;20060;-68
2021/01/31 06:25:34;;;;;;;15.13;7.70;;;3.90;99.90;;;;;;5109955;28;20463;-68
2021/01/31 06:28:10;;;;;;;14.30;7.72;;;3.90;99.90;;;;;;5105560;28;20051;-68
2021/01/31 06:30:48;;;;;;;15.25;6.93;;;3.70;99.90;;;;;;5108725;28;20414;-68
2021/01/31 06:33:15;;;;;;;16.45;7.32;;;3.70;99.90;;;;;;5110076;28;20088;-68
2021/01/31 06:35:42;;;;;;;13.13;7.40;;;3.60;99.90;;;;;;5105572;28;20059;-68
2021/01/31 06:38:14;;;;;;;14.45;7.70;;;3.60;99.90;;;;;;5107237;28;20093;-68
2021/01/31 06:41:01;;;;;;;14.15;7.30;;;3.70;99.90;;;;;;5106652;27;20086;-68
2021/01/31 06:43:52;;;;;;;14.30;7.90;;;3.80;99.90;;;;;;5101817;28;20535;-68
2021/01/31 06:46:34;;;;;;;17.65;7.65;;;4.00;99.90;;;;;;5101832;28;20089;-68
2021/01/31 06:49:28;;;;;;;14.80;7.65;;;3.80;99.90;;;;;;5109259;27;20076;-68
2021/01/31 06:52:01;;;;;;;16.10;8.05;;;4.00;99.90;;;;;;5105419;28;20075;-68
2021/01/31 06:54:47;;;;;;;12.45;7.40;;;4.00;99.90;;;;;;5107323;28;20101;-68
2021/01/31 06:57:56;;;;;;;16.65;8.10;;;3.80;99.90;;;;;;5108026;27;20466;-68
2021/01/31 07:00:49;;;;;;;13.40;7.75;;;4.00;99.90;;;;;;5076018;28;20056;-68
2021/01/31 07:03:34;;;;;;;15.23;7.82;;;3.90;99.90;;;;;;5101620;28;20524;-68
2021/01/31 07:06:35;;;;;;;14.82;8.15;;;4.10;99.90;;;;;;5109025;28;20466;-68
2021/01/31 07:09:39;;;;;;;14.10;8.23;;;3.90;99.90;;;;;;5102961;28;20083;-68
2021/01/31 07:12:46;;;;;;;14.45;7.15;;;4.30;99.90;;;;;;5105262;28;20169;-69
2021/01/31 07:15:18;;;;;;;14.38;7.72;;;4.10;99.90;;;;;;5102136;28;20100;-68
2021/01/31 07:17:55;;;;;;;14.60;7.78;;;4.00;99.90;;;;;;5107230;28;20123;-68
2021/01/31 07:20:24;;;;;;;13.23;7.75;;;4.10;99.90;;;;;;5110586;28;20044;-68
2021/01/31 07:22:57;;;;;;;15.70;7.63;;;3.90;99.90;;;;;;5100167;28;20044;-68
2021/01/31 07:25:35;;;;;;;16.55;7.55;;;3.90;99.90;;;;;;5102643;28;20054;-68
2021/01/31 07:28:25;;;;;;;15.18;7.82;;;4.00;99.90;;;;;;5107753;28;20539;-68
2021/01/31 07:31:15;;;;;;;16.33;8.32;;;3.80;99.90;;;;;;5101315;28;20055;-68
2021/01/31 07:33:50;;;;;;;14.98;7.82;;;3.80;99.90;;;;;;5108161;28;20388;-68
2021/01/31 07:36:35;;;;;;;12.93;7.40;;;4.10;99.90;;;;;;5107760;28;20119;-68
2021/01/31 07:39:12;;;;;;;15.18;7.93;;;3.90;99.90;;;;;;5100734;28;20072;-68
2021/01/31 07:41:52;;;;;;;13.80;7.88;;;4.00;99.90;;;;;;5106347;28;20055;-69
2021/01/31 07:44:27;;;;;;;14.47;8.03;;;3.90;99.90;;;;;;5108565;28;20044;-68
2021/01/31 07:46:58;;;;;;;14.20;7.63;;;3.90;99.90;;;;;;5104487;28;20062;-69
2021/01/31 07:49:25;;;;;;;13.77;7.78;;;3.90;99.90;;;;;;5108126;28;20104;-69
2021/01/31 07:51:54;;;;;;;19.00;8.40;;;3.90;99.90;;;;;;5108955;28;20035;-69
2021/01/31 07:54:34;;;;;;;14.40;8.07;;;3.90;99.90;;;;;;5106069;28;20143;-67
2021/01/31 07:57:32;;;;;;;17.88;7.70;;;3.90;99.90;;;;;;5107615;28;20071;-70
2021/01/31 07:59:58;;;;;;;14.80;7.90;;;4.00;99.90;;;;;;5106770;28;20082;-68
2021/01/31 08:02:41;;;;;;;37.47;11.02;;;4.00;99.90;;;;;;5101905;28;20138;-67
2021/01/31 08:05:15;;;;;;;79.60;16.58;;;3.90;99.90;;;;;;5105939;28;20059;-67
2021/01/31 08:08:03;;;;;;;25.05;10.43;;;4.00;99.90;;;;;;5104340;28;20414;-67
2021/01/31 08:10:47;;;;;;;12.27;7.25;;;4.00;99.90;;;;;;5103087;28;20075;-68
2021/01/31 08:13:32;;;;;;;16.20;8.23;;;4.00;99.90;;;;;;5101224;28;20237;-68
2021/01/31 08:15:58;;;;;;;15.10;7.95;;;4.00;99.90;;;;;;5103436;28;20524;-68
2021/01/31 08:18:24;;;;;;;15.88;7.40;;;3.80;99.90;;;;;;5108719;28;20043;-68
2021/01/31 08:20:52;;;;;;;13.45;7.68;;;3.80;99.90;;;;;;5106099;28;20407;-68
2021/01/31 08:23:33;;;;;;;16.95;7.88;;;3.80;99.90;;;;;;5100492;28;20124;-67
2021/01/31 08:26:04;;;;;;;16.05;7.70;;;4.00;99.90;;;;;;5104564;28;20540;-68
2021/01/31 08:28:34;;;;;;;18.52;8.00;;;4.00;99.90;;;;;;5105398;28;20071;-68
2021/01/31 08:31:14;;;;;;;15.07;7.82;;;4.00;99.90;;;;;;5100663;28;20082;-68
2021/01/31 08:33:42;;;;;;;15.35;7.55;;;3.90;99.90;;;;;;5104030;28;20524;-68
2021/01/31 08:36:35;;;;;;;14.68;7.65;;;4.30;99.90;;;;;;5105007;28;20048;-68
2021/01/31 08:39:02;;;;;;;15.18;7.60;;;4.30;99.90;;;;;;5104986;28;20039;-68
2021/01/31 08:41:40;;;;;;;13.60;7.88;;;4.10;99.90;;;;;;5101677;28;20089;-69
2021/01/31 08:44:09;;;;;;;12.10;7.13;;;4.00;99.90;;;;;;5100543;28;20050;-70
2021/01/31 08:46:56;;;;;;;16.65;8.25;;;4.30;99.90;;;;;;5104962;28;20147;-68
2021/01/31 08:49:22;;;;;;;14.40;8.30;;;4.30;99.90;;;;;;5103007;28;20469;-69
2021/01/31 08:52:00;;;;;;;15.25;8.10;;;4.10;99.90;;;;;;5101350;28;20134;-68
2021/01/31 08:54:27;;;;;;;14.43;7.38;;;4.00;99.90;;;;;;5100848;28;20067;-68
2021/01/31 08:56:59;;;;;;;14.30;7.95;;;4.30;99.90;;;;;;5100100;28;20052;-68
2021/01/31 08:59:25;;;;;;;13.70;7.70;;;4.20;99.90;;;;;;5100310;28;20600;-68
2021/01/31 09:02:14;;;;;;;15.82;8.52;;;4.20;99.90;;;;;;5078380;28;20146;-68
2021/01/31 09:04:54;;;;;;;16.05;7.95;;;4.30;99.90;;;;;;5087677;28;20054;-75
2021/01/31 09:07:36;;;;;;;14.00;8.52;;;4.20;99.90;;;;;;5089188;28;20740;-67
2021/01/31 09:10:29;;;;;;;15.10;8.00;;;4.20;99.90;;;;;;5088716;28;20144;-68
2021/01/31 09:13:26;;;;;;;15.02;8.05;;;4.30;99.90;;;;;;5089520;28;20174;-68
2021/01/31 09:15:53;;;;;;;12.95;7.22;;;4.30;99.90;;;;;;5085821;28;20147;-68
2021/01/31 09:18:23;;;;;;;16.52;8.25;;;4.40;99.90;;;;;;5087513;28;20177;-67
2021/01/31 09:20:50;;;;;;;15.50;8.00;;;4.60;99.90;;;;;;5091062;28;20044;-67
2021/01/31 09:23:29;;;;;;;14.88;8.65;;;4.40;99.90;;;;;;5091168;28;20144;-66
2021/01/31 09:25:55;;;;;;;15.93;8.45;;;4.40;99.90;;;;;;5092434;28;20126;-66
2021/01/31 09:28:24;;;;;;;15.23;8.50;;;4.50;99.90;;;;;;5091009;28;20586;-66
2021/01/31 09:31:00;;;;;;;14.35;8.13;;;4.50;99.90;;;;;;5091936;27;20052;-66
2021/01/31 09:33:38;;;;;;;15.02;7.95;;;4.60;99.90;;;;;;5092396;28;20074;-67
2021/01/31 09:36:19;;;;;;;13.93;8.27;;;4.70;99.90;;;;;;5092451;28;20047;-66
2021/01/31 09:38:49;;;;;;;17.73;9.18;;;4.70;99.90;;;;;;5091691;28;20075;-66
2021/01/31 09:41:18;;;;;;;12.85;7.35;;;4.80;99.90;;;;;;5094081;28;20076;-66
2021/01/31 09:43:46;;;;;;;20.10;8.65;;;4.90;99.90;;;;;;5094128;28;20126;-69
2021/01/31 09:46:15;;;;;;;17.23;8.68;;;5.00;99.90;;;;;;5092579;27;20841;-70
2021/01/31 09:48:42;;;;;;;16.55;9.13;;;5.00;99.90;;;;;;5092411;28;20139;-68
2021/01/31 09:51:23;;;;;;;16.45;7.70;;;5.10;99.90;;;;;;5089185;28;20138;-67
2021/01/31 09:53:50;;;;;;;14.07;7.97;;;5.20;99.90;;;;;;5091049;27;20124;-68
2021/01/31 09:56:40;;;;;;;13.40;8.45;;;5.20;99.90;;;;;;5092291;28;20206;-68
2021/01/31 09:59:34;;;;;;;15.98;8.27;;;5.30;99.90;;;;;;5091964;28;20130;-67
2021/01/31 10:02:07;;;;;;;15.35;7.50;;;5.30;99.90;;;;;;5087439;28;20568;-68
2021/01/31 10:04:35;;;;;;;13.98;7.95;;;5.20;99.70;;;;;;5089593;28;20059;-68
2021/01/31 10:07:06;;;;;;;15.00;8.23;;;5.10;99.90;;;;;;5091926;28;20363;-69
2021/01/31 10:09:36;;;;;;;14.02;7.35;;;5.10;99.50;;;;;;5087974;28;20822;-69
2021/01/31 10:12:24;;;;;;;16.85;8.27;;;5.10;99.50;;;;;;5091876;28;20124;-70
2021/01/31 10:14:53;;;;;;;16.20;8.70;;;5.10;99.60;;;;;;5091773;28;20575;-69
2021/01/31 10:17:34;;;;;;;15.05;8.07;;;5.40;99.40;;;;;;5090394;28;20784;-69
2021/01/31 10:20:36;;;;;;;13.40;8.10;;;5.60;99.00;;;;;;5088600;28;20128;-71
2021/01/31 10:23:13;;;;;;;14.60;7.47;;;5.50;98.90;;;;;;5090213;28;20158;-70
2021/01/31 10:25:43;;;;;;;16.50;7.97;;;5.30;98.80;;;;;;5093595;27;20143;-69
2021/01/31 10:28:12;;;;;;;13.88;7.63;;;5.60;99.10;;;;;;5091373;28;20047;-69
2021/01/31 10:30:43;;;;;;;15.10;8.40;;;5.30;98.70;;;;;;5090060;28;20104;-69
2021/01/31 10:33:38;;;;;;;15.88;7.88;;;5.30;99.00;;;;;;5089638;28;20266;-69
2021/01/31 10:36:28;;;;;;;11.55;6.85;;;5.40;99.30;;;;;;5090236;28;20155;-70
2021/01/31 10:38:57;;;;;;;13.50;7.65;;;5.40;99.30;;;;;;5091533;28;20179;-70
2021/01/31 10:41:24;;;;;;;15.07;8.38;;;5.20;98.80;;;;;;5091767;28;20143;-70
2021/01/31 10:44:02;;;;;;;13.88;8.10;;;5.50;99.30;;;;;;5091831;28;20047;-70
2021/01/31 10:46:30;;;;;;;13.35;7.45;;;5.40;99.00;;;;;;5090906;27;20048;-69
2021/01/31 10:48:56;;;;;;;15.13;8.18;;;5.40;98.60;;;;;;5092048;28;20071;-70
2021/01/31 10:51:24;;;;;;;18.38;8.40;;;5.30;98.60;;;;;;5092089;28;20142;-69
2021/01/31 10:53:50;;;;;;;14.77;7.45;;;5.20;99.00;;;;;;5090279;28;20139;-70
2021/01/31 10:56:17;;;;;;;16.52;7.75;;;5.30;99.00;;;;;;5090791;28;20143;-69
2021/01/31 10:58:43;;;;;;;16.67;8.10;;;5.30;98.60;;;;;;5093167;28;20134;-69
2021/01/31 11:01:09;;;;;;;15.55;8.13;;;5.50;98.90;;;;;;5089639;27;20062;-69
2021/01/31 11:03:36;;;;;;;13.88;7.97;;;5.30;98.60;;;;;;5092709;28;20478;-70
2021/01/31 11:06:03;;;;;;;15.52;8.25;;;5.40;98.60;;;;;;5091649;28;20089;-69
2021/01/31 11:08:29;;;;;;;14.30;7.78;;;5.40;98.70;;;;;;5089757;28;20187;-69
2021/01/31 11:10:56;;;;;;;14.70;8.30;;;5.40;98.70;;;;;;5089803;28;20071;-69
2021/01/31 11:13:23;;;;;;;16.38;8.15;;;5.60;98.80;;;;;;5091225;28;20561;-69
2021/01/31 11:15:49;;;;;;;13.52;7.78;;;5.70;98.80;;;;;;5092034;28;20096;-69
2021/01/31 11:18:15;;;;;;;13.18;7.45;;;5.60;98.20;;;;;;5088951;27;20039;-69
2021/01/31 11:20:42;;;;;;;14.60;8.48;;;5.50;98.50;;;;;;5086104;28;20104;-69
2021/01/31 11:23:09;;;;;;;13.85;7.32;;;5.60;98.20;;;;;;5089545;28;20142;-69
2021/01/31 11:25:36;;;;;;;14.63;8.02;;;5.60;98.50;;;;;;5087114;28;20059;-70
2021/01/31 11:28:03;;;;;;;14.75;7.85;;;5.30;98.30;;;;;;5091030;28;20109;-69
2021/01/31 11:30:29;;;;;;;16.55;8.30;;;5.30;98.60;;;;;;5088949;27;20047;-69
2021/01/31 11:32:57;;;;;;;13.95;7.38;;;5.40;98.60;;;;;;5089068;28;20133;-71
2021/01/31 11:35:23;;;;;;;15.57;7.53;;;5.50;98.60;;;;;;5089869;28;20096;-68
2021/01/31 11:37:51;;;;;;;15.45;7.45;;;5.50;98.00;;;;;;5089298;28;20051;-69
2021/01/31 11:40:18;;;;;;;17.73;8.73;;;5.50;97.70;;;;;;5093230;28;20120;-69
2021/01/31 11:42:45;;;;;;;18.20;8.82;;;5.50;98.10;;;;;;5086770;28;20075;-70
2021/01/31 11:45:12;;;;;;;20.17;10.25;;;5.50;98.20;;;;;;5088094;28;20120;-69
2021/01/31 11:47:40;;;;;;;16.05;8.68;;;5.70;98.70;;;;;;5087764;28;20520;-69
2021/01/31 11:50:09;;;;;;;19.40;9.50;;;5.70;98.30;;;;;;5089085;28;20950;-70
2021/01/31 11:52:36;;;;;;;22.95;10.70;;;5.80;98.30;;;;;;5088268;28;20396;-69
2021/01/31 11:55:04;;;;;;;18.73;9.90;;;5.70;98.40;;;;;;5087310;28;20044;-69
2021/01/31 11:57:30;;;;;;;42.35;16.98;;;5.90;98.00;;;;;;5088617;28;20075;-69
2021/01/31 11:59:57;;;;;;;17.63;9.43;;;6.10;98.20;;;;;;5088343;28;20129;-69
2021/01/31 12:02:23;;;;;;;15.48;9.05;;;5.90;98.00;;;;;;5091519;28;20185;-70
2021/01/31 12:04:49;;;;;;;20.50;10.40;;;5.80;97.60;;;;;;5094523;28;20146;-67
2021/01/31 12:07:16;;;;;;;15.18;8.57;;;6.00;97.80;;;;;;5091188;28;20552;-67
2021/01/31 12:09:43;;;;;;;13.40;7.95;;;5.80;97.90;;;;;;5096550;28;20048;-67
2021/01/31 12:12:09;;;;;;;14.63;7.78;;;5.80;97.30;;;;;;5096121;28;20063;-67
2021/01/31 12:14:36;;;;;;;13.30;7.53;;;5.70;97.60;;;;;;5095312;28;20063;-66
2021/01/31 12:17:02;;;;;;;13.52;7.00;;;5.70;97.60;;;;;;5097421;28;20044;-67
2021/01/31 12:19:28;;;;;;;13.98;7.45;;;5.80;98.00;;;;;;5096665;28;20138;-67
2021/01/31 12:21:54;;;;;;;13.15;7.53;;;5.80;97.70;;;;;;5097906;27;20574;-67
2021/01/31 12:24:21;;;;;;;13.40;7.97;;;5.80;97.80;;;;;;5096373;28;20143;-68
2021/01/31 12:26:50;;;;;;;14.40;7.45;;;5.80;97.70;;;;;;5097584;28;20075;-67
2021/01/31 12:29:17;;;;;;;15.48;7.72;;;5.70;97.20;;;;;;5096524;28;20066;-67
2021/01/31 12:31:46;;;;;;;14.65;7.55;;;5.70;97.80;;;;;;5097954;28;20953;-67
2021/01/31 12:34:13;;;;;;;12.52;7.35;;;5.80;98.00;;;;;;5098352;28;20117;-68
2021/01/31 12:36:41;;;;;;;13.80;7.50;;;5.70;97.50;;;;;;5095185;28;20105;-67
2021/01/31 12:39:08;;;;;;;16.80;9.25;;;5.80;98.10;;;;;;5097131;28;20707;-67
2021/01/31 12:41:35;;;;;;;14.90;8.23;;;5.70;97.40;;;;;;5094864;28;20068;-68
2021/01/31 12:44:01;;;;;;;13.80;8.05;;;5.70;97.60;;;;;;5097960;28;20504;-67
2021/01/31 12:46:28;;;;;;;13.55;7.68;;;5.70;97.50;;;;;;5096829;28;20066;-68
2021/01/31 12:48:54;;;;;;;13.43;7.47;;;5.70;97.50;;;;;;5096326;28;20502;-67
2021/01/31 12:51:21;;;;;;;15.27;8.57;;;5.90;97.70;;;;;;5096491;27;20060;-67
2021/01/31 12:53:47;;;;;;;16.83;8.65;;;5.90;97.90;;;;;;5094903;28;20097;-68
2021/01/31 12:56:13;;;;;;;15.48;8.25;;;6.00;97.70;;;;;;5100839;28;21341;-68
2021/01/31 12:58:40;;;;;;;22.42;9.57;;;6.00;97.60;;;;;;5100682;28;20609;-67
2021/01/31 13:01:06;;;;;;;22.92;11.07;;;6.00;97.80;;;;;;5100413;28;20086;-68
2021/01/31 13:03:33;;;;;;;15.27;8.32;;;5.90;98.10;;;;;;5102463;28;20051;-67
2021/01/31 13:05:59;;;;;;;15.45;8.32;;;6.00;97.70;;;;;;5101086;28;20047;-67
2021/01/31 13:08:25;;;;;;;15.95;8.07;;;6.10;97.50;;;;;;5096795;27;20055;-67
2021/01/31 13:10:53;;;;;;;14.90;7.85;;;6.20;97.40;;;;;;5102000;28;20079;-68
2021/01/31 13:13:19;;;;;;;14.55;7.85;;;6.20;97.20;;;;;;5100131;28;20567;-68
2021/01/31 13:15:45;;;;;;;13.95;7.78;;;6.10;97.00;;;;;;5099471;27;20047;-67
2021/01/31 13:18:11;;;;;;;13.70;8.13;;;6.10;97.40;;;;;;5099115;28;20138;-66
2021/01/31 13:20:38;;;;;;;16.13;8.65;;;6.00;97.90;;;;;;5099473;28;20048;-70